THUNDERSTORM

Not for real navigation. The accuracy of this data is not assured See disclaimer for more information



ICAO NAME COUNTRY WIND Kt GUST Kt VIS m TEMP/DEW C BARO METAR
VEGT Gauhati India 4 0 3000 27/25 29.88 VEGT 221930Z 02004KT 3000 TS SCT018 FEW025CB BKN100 27/25 Q1012 NOSIG
PAQT NUIQSUT AIRPORT AK United States 5 0 4800 1/0 29.61 PAQT 221952Z AUTO 22005KT 3SM BR BKN004 BKN024 OVC040 01/00 A2961 RMK AO2 SNE47 SLP026 P0000 T000600
LFMV 5 0 6000 18/16 29.91 LFMV 221930Z AUTO 29005KT 240V340 6000 -RA SCT016/// BKN029/// BKN045/// ///CB 18/16 Q1013 TEMPO VRB
SVMI Caracas / Maiquetia Aerop. Int Venezuela 5 0 6000 27/22 29.85 SVMI 222000Z 09005KT 6000 TSRA SCT010CB (N) OVC013 27/22 Q1011
FKYS Yaounde Cameroon 2 0 6000 24/23 30.03 FKYS 221900Z VRB02KT 6000 -TSRA SCT006 FEW020CB 24/23 Q1017 TEMPO 4000 TSRA

Show more